sensor_id;sensor_type;location;lat;lon;timestamp;pressure;altitude;pressure_sealevel;temperature;humidity
5872;BME280;2962;51.312;7.378;2023-01-27T00:01:00;97974.38;;;0.72;100.00
5872;BME280;2962;51.312;7.378;2023-01-27T00:03:26;97969.34;;;0.71;100.00
5872;BME280;2962;51.312;7.378;2023-01-27T00:05:51;97968.75;;;0.74;100.00
5872;BME280;2962;51.312;7.378;2023-01-27T00:08:17;97972.44;;;0.78;100.00
5872;BME280;2962;51.312;7.378;2023-01-27T00:10:42;97966.56;;;0.76;100.00
5872;BME280;2962;51.312;7.378;2023-01-27T00:13:12;97973.59;;;0.72;100.00
5872;BME280;2962;51.312;7.378;2023-01-27T00:16:07;97956.22;;;0.69;100.00
5872;BME280;2962;51.312;7.378;2023-01-27T00:18:32;97976.16;;;0.63;100.00
5872;BME280;2962;51.312;7.378;2023-01-27T00:20:57;97965.63;;;0.67;100.00
5872;BME280;2962;51.312;7.378;2023-01-27T00:23:41;97985.19;;;0.67;100.00
5872;BME280;2962;51.312;7.378;2023-01-27T00:26:25;97982.75;;;0.71;100.00
5872;BME280;2962;51.312;7.378;2023-01-27T00:28:50;97976.94;;;0.64;100.00
5872;BME280;2962;51.312;7.378;2023-01-27T00:31:16;97968.53;;;0.52;100.00
5872;BME280;2962;51.312;7.378;2023-01-27T00:34:00;97974.00;;;0.65;100.00
5872;BME280;2962;51.312;7.378;2023-01-27T00:36:27;97972.31;;;0.51;100.00
5872;BME280;2962;51.312;7.378;2023-01-27T00:38:53;97979.75;;;0.54;100.00
5872;BME280;2962;51.312;7.378;2023-01-27T00:41:19;97967.53;;;0.47;100.00
5872;BME280;2962;51.312;7.378;2023-01-27T00:43:48;97966.78;;;0.61;100.00
5872;BME280;2962;51.312;7.378;2023-01-27T00:46:15;97969.69;;;0.45;100.00
5872;BME280;2962;51.312;7.378;2023-01-27T00:48:41;97964.28;;;0.51;100.00
5872;BME280;2962;51.312;7.378;2023-01-27T00:51:07;97971.44;;;0.55;100.00
5872;BME280;2962;51.312;7.378;2023-01-27T00:53:32;97962.72;;;0.44;100.00
5872;BME280;2962;51.312;7.378;2023-01-27T00:55:57;97977.06;;;0.54;100.00
5872;BME280;2962;51.312;7.378;2023-01-27T00:58:27;97982.50;;;0.48;100.00
5872;BME280;2962;51.312;7.378;2023-01-27T01:00:53;97972.31;;;0.51;100.00
5872;BME280;2962;51.312;7.378;2023-01-27T01:03:19;97975.56;;;0.47;100.00
5872;BME280;2962;51.312;7.378;2023-01-27T01:05:44;97980.63;;;0.49;100.00
5872;BME280;2962;51.312;7.378;2023-01-27T01:08:09;97968.63;;;0.46;100.00
5872;BME280;2962;51.312;7.378;2023-01-27T01:10:36;97985.13;;;0.54;100.00
5872;BME280;2962;51.312;7.378;2023-01-27T01:13:02;97975.50;;;0.53;100.00
5872;BME280;2962;51.312;7.378;2023-01-27T01:15:27;97982.03;;;0.46;100.00
5872;BME280;2962;51.312;7.378;2023-01-27T01:17:52;97980.41;;;0.64;100.00
5872;BME280;2962;51.312;7.378;2023-01-27T01:20:18;97977.06;;;0.54;100.00
5872;BME280;2962;51.312;7.378;2023-01-27T01:22:43;97976.59;;;0.52;100.00
5872;BME280;2962;51.312;7.378;2023-01-27T01:25:08;97981.59;;;0.58;100.00
5872;BME280;2962;51.312;7.378;2023-01-27T01:27:33;97984.09;;;0.49;100.00
5872;BME280;2962;51.312;7.378;2023-01-27T01:29:59;97977.13;;;0.30;100.00
5872;BME280;2962;51.312;7.378;2023-01-27T01:32:25;97978.81;;;0.44;100.00
5872;BME280;2962;51.312;7.378;2023-01-27T01:34:50;97986.38;;;0.42;100.00
5872;BME280;2962;51.312;7.378;2023-01-27T01:37:15;97999.25;;;0.40;100.00
5872;BME280;2962;51.312;7.378;2023-01-27T01:39:40;98003.69;;;0.50;100.00
5872;BME280;2962;51.312;7.378;2023-01-27T01:42:06;97992.13;;;0.31;100.00
5872;BME280;2962;51.312;7.378;2023-01-27T01:44:31;97989.16;;;0.32;100.00
5872;BME280;2962;51.312;7.378;2023-01-27T01:46:57;97990.50;;;0.35;100.00
5872;BME280;2962;51.312;7.378;2023-01-27T01:49:30;97998.22;;;0.36;100.00
5872;BME280;2962;51.312;7.378;2023-01-27T01:52:00;97995.47;;;0.41;100.00
5872;BME280;2962;51.312;7.378;2023-01-27T01:54:34;97992.94;;;0.31;100.00
5872;BME280;2962;51.312;7.378;2023-01-27T01:57:06;97998.81;;;0.33;100.00
5872;BME280;2962;51.312;7.378;2023-01-27T01:59:36;97998.88;;;0.28;100.00
5872;BME280;2962;51.312;7.378;2023-01-27T02:02:07;97998.13;;;0.22;100.00
5872;BME280;2962;51.312;7.378;2023-01-27T02:04:39;97988.03;;;0.14;100.00
5872;BME280;2962;51.312;7.378;2023-01-27T02:07:10;98013.13;;;0.23;100.00
5872;BME280;2962;51.312;7.378;2023-01-27T02:09:38;98000.09;;;0.17;100.00
5872;BME280;2962;51.312;7.378;2023-01-27T02:12:03;98012.84;;;0.25;100.00
5872;BME280;2962;51.312;7.378;2023-01-27T02:14:29;98008.38;;;0.15;100.00
5872;BME280;2962;51.312;7.378;2023-01-27T02:16:54;98001.59;;;0.23;100.00
5872;BME280;2962;51.312;7.378;2023-01-27T02:19:40;98009.59;;;0.28;100.00
5872;BME280;2962;51.312;7.378;2023-01-27T02:22:17;98011.47;;;0.28;100.00
5872;BME280;2962;51.312;7.378;2023-01-27T02:24:46;98010.09;;;0.30;100.00
5872;BME280;2962;51.312;7.378;2023-01-27T02:27:17;98006.47;;;0.21;100.00
5872;BME280;2962;51.312;7.378;2023-01-27T02:29:42;97998.91;;;0.23;100.00
5872;BME280;2962;51.312;7.378;2023-01-27T02:32:21;98011.53;;;0.22;100.00
5872;BME280;2962;51.312;7.378;2023-01-27T02:34:46;98004.09;;;0.19;100.00
5872;BME280;2962;51.312;7.378;2023-01-27T02:37:11;98000.66;;;0.14;100.00
5872;BME280;2962;51.312;7.378;2023-01-27T02:39:39;98000.53;;;0.24;100.00
5872;BME280;2962;51.312;7.378;2023-01-27T02:42:08;98003.03;;;0.15;100.00
5872;BME280;2962;51.312;7.378;2023-01-27T02:44:34;97997.09;;;0.18;100.00
5872;BME280;2962;51.312;7.378;2023-01-27T02:47:00;98003.00;;;0.20;100.00
5872;BME280;2962;51.312;7.378;2023-01-27T02:49:25;98000.31;;;0.20;100.00
5872;BME280;2962;51.312;7.378;2023-01-27T02:51:50;97995.81;;;0.16;100.00
5872;BME280;2962;51.312;7.378;2023-01-27T02:54:15;97999.50;;;0.20;100.00
5872;BME280;2962;51.312;7.378;2023-01-27T02:56:41;98010.81;;;0.17;100.00
5872;BME280;2962;51.312;7.378;2023-01-27T02:59:06;97996.31;;;0.18;100.00
5872;BME280;2962;51.312;7.378;2023-01-27T03:01:31;97993.50;;;0.28;100.00
5872;BME280;2962;51.312;7.378;2023-01-27T03:03:57;98012.53;;;0.27;100.00
5872;BME280;2962;51.312;7.378;2023-01-27T03:06:22;98009.44;;;0.19;100.00
5872;BME280;2962;51.312;7.378;2023-01-27T03:08:48;98007.47;;;0.25;100.00
5872;BME280;2962;51.312;7.378;2023-01-27T03:11:13;98002.22;;;0.15;100.00
5872;BME280;2962;51.312;7.378;2023-01-27T03:13:39;98006.47;;;0.21;100.00
5872;BME280;2962;51.312;7.378;2023-01-27T03:16:05;97992.13;;;0.12;100.00
5872;BME280;2962;51.312;7.378;2023-01-27T03:18:50;98000.72;;;0.09;100.00
5872;BME280;2962;51.312;7.378;2023-01-27T03:21:17;98008.91;;;0.17;100.00
5872;BME280;2962;51.312;7.378;2023-01-27T03:23:42;97998.50;;;0.16;100.00
5872;BME280;2962;51.312;7.378;2023-01-27T03:26:09;97999.84;;;0.13;100.00
5872;BME280;2962;51.312;7.378;2023-01-27T03:28:35;98003.22;;;0.24;100.00
5872;BME280;2962;51.312;7.378;2023-01-27T03:31:01;97995.06;;;0.10;100.00
5872;BME280;2962;51.312;7.378;2023-01-27T03:33:27;98004.28;;;0.23;100.00
5872;BME280;2962;51.312;7.378;2023-01-27T03:35:53;98009.63;;;0.23;100.00
5872;BME280;2962;51.312;7.378;2023-01-27T03:38:37;98004.28;;;0.23;100.00
5872;BME280;2962;51.312;7.378;2023-01-27T03:41:21;98007.56;;;0.20;100.00
5872;BME280;2962;51.312;7.378;2023-01-27T03:44:04;97993.63;;;0.18;100.00
5872;BME280;2962;51.312;7.378;2023-01-27T03:46:48;98005.91;;;0.24;100.00
5872;BME280;2962;51.312;7.378;2023-01-27T03:49:14;98011.72;;;0.31;100.00
5872;BME280;2962;51.312;7.378;2023-01-27T03:51:39;98009.88;;;0.27;100.00
5872;BME280;2962;51.312;7.378;2023-01-27T03:54:04;98011.53;;;0.22;100.00
5872;BME280;2962;51.312;7.378;2023-01-27T03:56:29;98003.84;;;0.16;100.00
5872;BME280;2962;51.312;7.378;2023-01-27T03:58:55;98014.09;;;0.33;100.00
5872;BME280;2962;51.312;7.378;2023-01-27T04:01:21;98014.97;;;0.28;100.00
5872;BME280;2962;51.312;7.378;2023-01-27T04:03:48;98011.28;;;0.19;100.00
5872;BME280;2962;51.312;7.378;2023-01-27T04:06:34;97994.50;;;0.13;100.00
5872;BME280;2962;51.312;7.378;2023-01-27T04:11:47;98008.16;;;0.36;100.00
5872;BME280;2962;51.312;7.378;2023-01-27T04:14:44;98009.59;;;0.28;100.00
5872;BME280;2962;51.312;7.378;2023-01-27T04:17:12;98007.09;;;0.13;100.00
5872;BME280;2962;51.312;7.378;2023-01-27T04:19:38;98001.59;;;0.23;100.00
5872;BME280;2962;51.312;7.378;2023-01-27T04:22:04;98013.88;;;0.29;100.00
5872;BME280;2962;51.312;7.378;2023-01-27T04:24:29;98009.59;;;0.28;100.00
5872;BME280;2962;51.312;7.378;2023-01-27T04:27:00;98019.44;;;0.33;100.00
5872;BME280;2962;51.312;7.378;2023-01-27T04:29:28;98014.16;;;0.28;100.00
5872;BME280;2962;51.312;7.378;2023-01-27T04:31:54;98024.91;;;0.22;100.00
5872;BME280;2962;51.312;7.378;2023-01-27T04:34:20;98027.78;;;0.31;100.00
5872;BME280;2962;51.312;7.378;2023-01-27T04:36:46;98013.38;;;0.27;100.00
5872;BME280;2962;51.312;7.378;2023-01-27T04:39:12;98030.88;;;0.38;100.00
5872;BME280;2962;51.312;7.378;2023-01-27T04:41:37;98037.69;;;0.31;100.00
5872;BME280;2962;51.312;7.378;2023-01-27T04:44:04;98024.59;;;0.29;100.00
5872;BME280;2962;51.312;7.378;2023-01-27T04:46:30;98029.81;;;0.39;100.00
5872;BME280;2962;51.312;7.378;2023-01-27T04:48:55;98033.00;;;0.41;100.00
5872;BME280;2962;51.312;7.378;2023-01-27T04:51:20;98026.63;;;0.37;100.00
5872;BME280;2962;51.312;7.378;2023-01-27T04:53:45;98032.44;;;0.44;100.00
5872;BME280;2962;51.312;7.378;2023-01-27T04:58:50;98027.53;;;0.52;100.00
5872;BME280;2962;51.312;7.378;2023-01-27T05:01:16;98033.81;;;0.18;100.00
5872;BME280;2962;51.312;7.378;2023-01-27T05:03:42;98025.31;;;0.11;100.00
5872;BME280;2962;51.312;7.378;2023-01-27T05:06:09;98032.91;;;0.28;100.00
5872;BME280;2962;51.312;7.378;2023-01-27T05:08:34;98039.97;;;0.42;100.00
5872;BME280;2962;51.312;7.378;2023-01-27T05:11:00;98027.78;;;0.31;100.00
5872;BME280;2962;51.312;7.378;2023-01-27T05:13:25;98048.44;;;0.49;100.00
5872;BME280;2962;51.312;7.378;2023-01-27T05:15:50;98027.06;;;0.44;100.00
5872;BME280;2962;51.312;7.378;2023-01-27T05:18:16;98032.50;;;0.39;100.00
5872;BME280;2962;51.312;7.378;2023-01-27T05:20:41;98039.53;;;0.35;100.00
5872;BME280;2962;51.312;7.378;2023-01-27T05:23:06;98029.44;;;0.46;100.00
5872;BME280;2962;51.312;7.378;2023-01-27T05:26:08;98044.69;;;0.51;100.00
5872;BME280;2962;51.312;7.378;2023-01-27T05:28:35;98051.94;;;0.50;100.00
5872;BME280;2962;51.312;7.378;2023-01-27T05:31:12;98051.94;;;0.50;100.00
5872;BME280;2962;51.312;7.378;2023-01-27T05:33:39;98050.56;;;0.53;100.00
5872;BME280;2962;51.312;7.378;2023-01-27T05:36:06;98046.38;;;0.46;100.00
5872;BME280;2962;51.312;7.378;2023-01-27T05:38:31;98052.16;;;0.54;100.00
5872;BME280;2962;51.312;7.378;2023-01-27T05:40:58;98057.81;;;0.52;100.00
5872;BME280;2962;51.312;7.378;2023-01-27T05:43:26;98060.38;;;0.62;100.00
5872;BME280;2962;51.312;7.378;2023-01-27T05:45:52;98061.22;;;0.58;100.00
5872;BME280;2962;51.312;7.378;2023-01-27T05:48:17;98050.50;;;0.58;100.00
5872;BME280;2962;51.312;7.378;2023-01-27T05:50:43;98050.91;;;0.46;100.00
5872;BME280;2962;51.312;7.378;2023-01-27T05:53:08;98068.69;;;0.61;100.00
5872;BME280;2962;51.312;7.378;2023-01-27T05:55:33;98073.03;;;0.57;100.00
5872;BME280;2962;51.312;7.378;2023-01-27T05:57:58;98068.53;;;0.52;100.00
5872;BME280;2962;51.312;7.378;2023-01-27T06:00:24;98067.44;;;0.53;100.00
5872;BME280;2962;51.312;7.378;2023-01-27T06:02:49;98073.53;;;0.59;100.00
5872;BME280;2962;51.312;7.378;2023-01-27T06:05:14;98072.97;;;0.62;100.00
5872;BME280;2962;51.312;7.378;2023-01-27T06:07:40;98075.44;;;0.58;100.00
5872;BME280;2962;51.312;7.378;2023-01-27T06:10:05;98072.97;;;0.62;100.00
5872;BME280;2962;51.312;7.378;2023-01-27T06:12:30;98069.84;;;0.55;100.00
5872;BME280;2962;51.312;7.378;2023-01-27T06:14:56;98066.63;;;0.53;100.00
5872;BME280;2962;51.312;7.378;2023-01-27T06:17:24;98064.53;;;0.49;100.00
5872;BME280;2962;51.312;7.378;2023-01-27T06:19:49;98067.72;;;0.52;100.00
5872;BME280;2962;51.312;7.378;2023-01-27T06:22:15;98073.25;;;0.60;100.00
5872;BME280;2962;51.312;7.378;2023-01-27T06:24:40;98075.59;;;0.67;100.00
5872;BME280;2962;51.312;7.378;2023-01-27T06:27:05;98075.81;;;0.70;100.00
5872;BME280;2962;51.312;7.378;2023-01-27T06:29:31;98058.41;;;0.68;100.00
5872;BME280;2962;51.312;7.378;2023-01-27T06:31:56;98086.47;;;0.76;100.00
5872;BME280;2962;51.312;7.378;2023-01-27T06:34:21;98078.75;;;0.69;100.00
5872;BME280;2962;51.312;7.378;2023-01-27T06:36:46;98092.78;;;0.66;100.00
5872;BME280;2962;51.312;7.378;2023-01-27T06:39:12;98092.81;;;0.61;100.00
5872;BME280;2962;51.312;7.378;2023-01-27T06:41:38;98100.28;;;0.64;100.00
5872;BME280;2962;51.312;7.378;2023-01-27T06:44:03;98103.53;;;0.61;100.00
5872;BME280;2962;51.312;7.378;2023-01-27T06:46:28;98114.44;;;0.69;100.00
5872;BME280;2962;51.312;7.378;2023-01-27T06:48:53;98105.88;;;0.67;100.00
5872;BME280;2962;51.312;7.378;2023-01-27T06:51:19;98101.88;;;0.65;100.00
5872;BME280;2962;51.312;7.378;2023-01-27T06:53:44;98113.84;;;0.72;100.00
5872;BME280;2962;51.312;7.378;2023-01-27T06:56:09;98119.44;;;0.76;100.00
5872;BME280;2962;51.312;7.378;2023-01-27T06:58:35;98117.13;;;0.69;100.00
5872;BME280;2962;51.312;7.378;2023-01-27T07:01:00;98114.22;;;0.66;100.00
5872;BME280;2962;51.312;7.378;2023-01-27T07:03:25;98121.63;;;0.74;100.00
5872;BME280;2962;51.312;7.378;2023-01-27T07:05:52;98125.75;;;0.66;100.00
5872;BME280;2962;51.312;7.378;2023-01-27T07:08:17;98130.53;;;0.69;100.00
5872;BME280;2962;51.312;7.378;2023-01-27T07:10:42;98127.56;;;0.71;100.00
5872;BME280;2962;51.312;7.378;2023-01-27T07:13:09;98129.72;;;0.69;100.00
5872;BME280;2962;51.312;7.378;2023-01-27T07:15:35;98131.34;;;0.70;100.00
5872;BME280;2962;51.312;7.378;2023-01-27T07:18:01;98125.91;;;0.75;100.00
5872;BME280;2962;51.312;7.378;2023-01-27T07:20:27;98132.59;;;0.78;100.00
5872;BME280;2962;51.312;7.378;2023-01-27T07:23:00;98144.09;;;0.78;100.00
5872;BME280;2962;51.312;7.378;2023-01-27T07:25:27;98138.41;;;1.04;100.00
5872;BME280;2962;51.312;7.378;2023-01-27T07:27:52;98143.97;;;1.07;100.00
5872;BME280;2962;51.312;7.378;2023-01-27T07:30:18;98144.47;;;0.90;100.00
5872;BME280;2962;51.312;7.378;2023-01-27T07:32:43;98149.06;;;0.90;100.00
5872;BME280;2962;51.312;7.378;2023-01-27T07:35:08;98153.44;;;0.81;100.00
5872;BME280;2962;51.312;7.378;2023-01-27T07:37:34;98160.44;;;0.82;100.00
5872;BME280;2962;51.312;7.378;2023-01-27T07:39:59;98158.59;;;0.77;100.00
5872;BME280;2962;51.312;7.378;2023-01-27T07:42:24;98155.84;;;0.82;100.00
5872;BME280;2962;51.312;7.378;2023-01-27T07:44:50;98165.56;;;0.78;100.00
5872;BME280;2962;51.312;7.378;2023-01-27T07:47:15;98149.88;;;0.66;100.00
5872;BME280;2962;51.312;7.378;2023-01-27T07:49:40;98146.81;;;0.73;100.00
5872;BME280;2962;51.312;7.378;2023-01-27T07:52:05;98165.50;;;0.83;100.00
5872;BME280;2962;51.312;7.378;2023-01-27T07:54:31;98169.34;;;0.77;100.00
5872;BME280;2962;51.312;7.378;2023-01-27T07:56:58;98160.06;;;0.88;100.00
5872;BME280;2962;51.312;7.378;2023-01-27T07:59:24;98168.09;;;0.88;100.00
5872;BME280;2962;51.312;7.378;2023-01-27T08:01:49;98175.00;;;0.94;100.00
5872;BME280;2962;51.312;7.378;2023-01-27T08:04:14;98162.41;;;0.95;100.00
5872;BME280;2962;51.312;7.378;2023-01-27T08:06:40;98170.22;;;0.91;100.00
5872;BME280;2962;51.312;7.378;2023-01-27T08:09:05;98162.81;;;0.83;100.00
5872;BME280;2962;51.312;7.378;2023-01-27T08:11:30;98168.78;;;0.99;100.00
5872;BME280;2962;51.312;7.378;2023-01-27T08:13:56;98170.91;;;1.02;100.00
5872;BME280;2962;51.312;7.378;2023-01-27T08:16:21;98169.88;;;0.98;100.00
5872;BME280;2962;51.312;7.378;2023-01-27T08:18:46;98172.84;;;0.96;100.00
5872;BME280;2962;51.312;7.378;2023-01-27T08:21:12;98176.72;;;1.09;100.00
5872;BME280;2962;51.312;7.378;2023-01-27T08:23:37;98169.59;;;1.18;100.00
5872;BME280;2962;51.312;7.378;2023-01-27T08:26:05;98181.13;;;1.19;100.00
5872;BME280;2962;51.312;7.378;2023-01-27T08:28:32;98170.69;;;1.17;100.00
5872;BME280;2962;51.312;7.378;2023-01-27T08:31:09;98177.59;;;1.24;100.00
5872;BME280;2962;51.312;7.378;2023-01-27T08:33:35;98176.72;;;1.28;100.00
5872;BME280;2962;51.312;7.378;2023-01-27T08:36:14;98179.41;;;1.28;100.00
5872;BME280;2962;51.312;7.378;2023-01-27T08:38:41;98179.28;;;1.19;100.00
5872;BME280;2962;51.312;7.378;2023-01-27T08:41:10;98183.19;;;1.27;100.00
5872;BME280;2962;51.312;7.378;2023-01-27T08:43:36;98172.59;;;1.17;100.00
5872;BME280;2962;51.312;7.378;2023-01-27T08:46:02;98187.09;;;1.16;100.00
5872;BME280;2962;51.312;7.378;2023-01-27T08:48:28;98176.84;;;1.18;100.00
5872;BME280;2962;51.312;7.378;2023-01-27T08:50:54;98188.34;;;1.24;100.00
5872;BME280;2962;51.312;7.378;2023-01-27T08:53:20;98183.41;;;1.31;100.00
5872;BME280;2962;51.312;7.378;2023-01-27T08:55:55;98188.41;;;1.37;100.00
5872;BME280;2962;51.312;7.378;2023-01-27T08:58:20;98180.94;;;1.34;100.00
5872;BME280;2962;51.312;7.378;2023-01-27T09:00:46;98186.81;;;1.36;100.00
5872;BME280;2962;51.312;7.378;2023-01-27T09:03:11;98184.94;;;1.37;100.00
5872;BME280;2962;51.312;7.378;2023-01-27T09:05:38;98188.28;;;1.48;100.00
5872;BME280;2962;51.312;7.378;2023-01-27T09:08:04;98195.81;;;1.45;100.00
5872;BME280;2962;51.312;7.378;2023-01-27T09:10:29;98199.44;;;1.55;100.00
5872;BME280;2962;51.312;7.378;2023-01-27T09:12:56;98205.84;;;1.59;100.00
5872;BME280;2962;51.312;7.378;2023-01-27T09:15:21;98197.78;;;1.40;100.00
5872;BME280;2962;51.312;7.378;2023-01-27T09:17:47;98195.53;;;1.47;100.00
5872;BME280;2962;51.312;7.378;2023-01-27T09:20:12;98200.16;;;1.41;100.00
5872;BME280;2962;51.312;7.378;2023-01-27T09:22:39;98204.47;;;1.42;100.00
5872;BME280;2962;51.312;7.378;2023-01-27T09:25:06;98218.25;;;1.55;100.00
5872;BME280;2962;51.312;7.378;2023-01-27T09:27:32;98205.41;;;1.52;100.00
5872;BME280;2962;51.312;7.378;2023-01-27T09:29:57;98222.97;;;1.44;100.00
5872;BME280;2962;51.312;7.378;2023-01-27T09:32:22;98217.22;;;1.32;100.00
5872;BME280;2962;51.312;7.378;2023-01-27T09:34:47;98222.59;;;1.51;100.00
5872;BME280;2962;51.312;7.378;2023-01-27T09:37:13;98231.03;;;1.63;100.00
5872;BME280;2962;51.312;7.378;2023-01-27T09:39:45;98232.94;;;1.38;100.00
5872;BME280;2962;51.312;7.378;2023-01-27T09:48:19;98243.00;;;1.52;100.00
5872;BME280;2962;51.312;7.378;2023-01-27T09:51:04;98241.19;;;1.47;100.00
5872;BME280;2962;51.312;7.378;2023-01-27T09:53:50;98239.56;;;1.46;100.00
5872;BME280;2962;51.312;7.378;2023-01-27T09:59:05;98257.53;;;1.51;100.00
5872;BME280;2962;51.312;7.378;2023-01-27T10:01:49;98243.06;;;1.46;100.00
5872;BME280;2962;51.312;7.378;2023-01-27T10:07:31;98254.09;;;1.64;100.00
5872;BME280;2962;51.312;7.378;2023-01-27T10:18:40;98258.78;;;1.77;100.00
5872;BME280;2962;51.312;7.378;2023-01-27T10:21:28;98261.22;;;1.92;100.00
5872;BME280;2962;51.312;7.378;2023-01-27T10:26:41;98256.22;;;2.05;100.00
5872;BME280;2962;51.312;7.378;2023-01-27T10:29:09;98247.63;;;2.03;100.00
5872;BME280;2962;51.312;7.378;2023-01-27T10:34:35;98257.00;;;1.86;100.00
5872;BME280;2962;51.312;7.378;2023-01-27T10:37:09;98255.34;;;1.90;100.00
5872;BME280;2962;51.312;7.378;2023-01-27T10:39:48;98268.28;;;1.88;100.00
5872;BME280;2962;51.312;7.378;2023-01-27T10:42:27;98258.69;;;1.82;100.00
5872;BME280;2962;51.312;7.378;2023-01-27T10:50:16;98246.78;;;1.88;100.00
5872;BME280;2962;51.312;7.378;2023-01-27T10:52:47;98247.63;;;1.84;100.00
5872;BME280;2962;51.312;7.378;2023-01-27T10:55:24;98249.84;;;1.82;100.00
5872;BME280;2962;51.312;7.378;2023-01-27T10:58:32;98257.16;;;1.95;100.00
5872;BME280;2962;51.312;7.378;2023-01-27T11:01:01;98249.75;;;1.87;100.00
5872;BME280;2962;51.312;7.378;2023-01-27T11:03:40;98244.69;;;1.85;100.00
5872;BME280;2962;51.312;7.378;2023-01-27T11:06:19;98240.22;;;1.94;100.00
5872;BME280;2962;51.312;7.378;2023-01-27T11:08:50;98255.03;;;1.92;100.00
5872;BME280;2962;51.312;7.378;2023-01-27T11:11:20;98241.59;;;1.92;100.00
5872;BME280;2962;51.312;7.378;2023-01-27T11:16:44;98226.66;;;1.86;100.00
5872;BME280;2962;51.312;7.378;2023-01-27T11:20:01;98239.31;;;1.85;100.00
5872;BME280;2962;51.312;7.378;2023-01-27T11:22:02;98225.75;;;2.09;100.00
5872;BME280;2962;51.312;7.378;2023-01-27T11:24:45;98230.94;;;2.38;100.00
5872;BME280;2962;51.312;7.378;2023-01-27T11:29:54;98216.97;;;2.36;100.00
5872;BME280;2962;51.312;7.378;2023-01-27T11:32:34;98221.59;;;2.17;100.00
5872;BME280;2962;51.312;7.378;2023-01-27T11:37:38;98222.44;;;1.99;100.00
5872;BME280;2962;51.312;7.378;2023-01-27T11:40:17;98212.63;;;2.08;100.00
5872;BME280;2962;51.312;7.378;2023-01-27T11:42:45;98210.94;;;2.12;100.00
5872;BME280;2962;51.312;7.378;2023-01-27T11:45:16;98223.31;;;1.94;100.00
5872;BME280;2962;51.312;7.378;2023-01-27T11:47:42;98227.00;;;1.98;100.00
5872;BME280;2962;51.312;7.378;2023-01-27T11:50:19;98215.31;;;2.08;100.00
5872;BME280;2962;51.312;7.378;2023-01-27T11:52:48;98219.28;;;2.10;100.00
5872;BME280;2962;51.312;7.378;2023-01-27T11:55:19;98229.13;;;2.01;100.00
5872;BME280;2962;51.312;7.378;2023-01-27T11:57:51;98232.69;;;1.97;100.00
5872;BME280;2962;51.312;7.378;2023-01-27T12:00:36;98231.16;;;1.90;100.00
5872;BME280;2962;51.312;7.378;2023-01-27T12:03:10;98228.00;;;2.02;100.00
5872;BME280;2962;51.312;7.378;2023-01-27T12:05:46;98229.56;;;1.89;100.00
5872;BME280;2962;51.312;7.378;2023-01-27T12:08:40;98231.16;;;1.90;100.00
5872;BME280;2962;51.312;7.378;2023-01-27T12:11:23;98216.34;;;1.93;100.00
5872;BME280;2962;51.312;7.378;2023-01-27T12:13:54;98224.31;;;1.98;100.00
5872;BME280;2962;51.312;7.378;2023-01-27T12:16:23;98220.09;;;1.92;100.00
5872;BME280;2962;51.312;7.378;2023-01-27T12:18:54;98223.53;;;1.98;100.00
5872;BME280;2962;51.312;7.378;2023-01-27T12:21:34;98206.19;;;1.71;100.00
5872;BME280;2962;51.312;7.378;2023-01-27T12:24:01;98201.59;;;1.90;100.00
5872;BME280;2962;51.312;7.378;2023-01-27T12:26:33;98214.38;;;1.99;100.00
5872;BME280;2962;51.312;7.378;2023-01-27T12:29:04;98194.53;;;1.94;100.00
5872;BME280;2962;51.312;7.378;2023-01-27T12:31:32;98201.44;;;2.01;100.00
5872;BME280;2962;51.312;7.378;2023-01-27T12:34:17;98205.38;;;1.89;100.00
5872;BME280;2962;51.312;7.378;2023-01-27T12:36:45;98206.75;;;1.87;100.00
5872;BME280;2962;51.312;7.378;2023-01-27T12:39:36;98199.50;;;1.87;100.00
5872;BME280;2962;51.312;7.378;2023-01-27T12:42:04;98201.09;;;1.88;100.00
5872;BME280;2962;51.312;7.378;2023-01-27T12:44:41;98197.66;;;2.02;100.00
5872;BME280;2962;51.312;7.378;2023-01-27T12:47:25;98193.06;;;2.02;100.00
5872;BME280;2962;51.312;7.378;2023-01-27T12:49:50;98197.56;;;2.07;100.00
5872;BME280;2962;51.312;7.378;2023-01-27T12:52:20;98183.59;;;1.91;100.00
5872;BME280;2962;51.312;7.378;2023-01-27T12:54:46;98194.09;;;2.06;100.00
5872;BME280;2962;51.312;7.378;2023-01-27T12:57:15;98198.94;;;2.23;100.00
5872;BME280;2962;51.312;7.378;2023-01-27T12:59:50;98199.56;;;2.15;100.00
5872;BME280;2962;51.312;7.378;2023-01-27T13:02:21;98210.25;;;2.20;100.00
5872;BME280;2962;51.312;7.378;2023-01-27T13:04:56;98207.66;;;2.15;100.00
5872;BME280;2962;51.312;7.378;2023-01-27T13:07:26;98203.53;;;2.04;100.00
5872;BME280;2962;51.312;7.378;2023-01-27T13:09:56;98206.81;;;2.01;100.00
5872;BME280;2962;51.312;7.378;2023-01-27T13:12:27;98206.75;;;1.87;100.00
5872;BME280;2962;51.312;7.378;2023-01-27T13:14:56;98210.97;;;1.93;100.00
5872;BME280;2962;51.312;7.378;2023-01-27T13:17:36;98208.94;;;1.85;100.00
5872;BME280;2962;51.312;7.378;2023-01-27T13:20:06;98203.19;;;1.91;100.00
5872;BME280;2962;51.312;7.378;2023-01-27T13:22:44;98211.34;;;1.86;100.00
5872;BME280;2962;51.312;7.378;2023-01-27T13:25:20;98214.56;;;2.02;100.00
5872;BME280;2962;51.312;7.378;2023-01-27T13:27:47;98210.94;;;2.12;100.00
5872;BME280;2962;51.312;7.378;2023-01-27T13:30:28;98205.91;;;2.24;100.00
5872;BME280;2962;51.312;7.378;2023-01-27T13:32:59;98207.53;;;2.39;100.00
5872;BME280;2962;51.312;7.378;2023-01-27T13:35:34;98202.34;;;2.56;100.00
5872;BME280;2962;51.312;7.378;2023-01-27T13:38:22;98215.69;;;2.48;100.00
5872;BME280;2962;51.312;7.378;2023-01-27T13:40:48;98209.78;;;2.32;100.00
5872;BME280;2962;51.312;7.378;2023-01-27T13:43:28;98208.06;;;2.22;100.00
5872;BME280;2962;51.312;7.378;2023-01-27T13:46:03;98218.78;;;2.08;100.00
5872;BME280;2962;51.312;7.378;2023-01-27T13:48:34;98215.03;;;1.90;100.00
5872;BME280;2962;51.312;7.378;2023-01-27T13:51:11;98216.19;;;1.84;100.00
5872;BME280;2962;51.312;7.378;2023-01-27T13:53:38;98208.88;;;1.71;100.00
5872;BME280;2962;51.312;7.378;2023-01-27T13:58:44;98232.97;;;1.76;100.00
5872;BME280;2962;51.312;7.378;2023-01-27T14:09:27;98235.59;;;1.62;100.00
5872;BME280;2962;51.312;7.378;2023-01-27T14:12:12;98244.47;;;1.82;100.00
5872;BME280;2962;51.312;7.378;2023-01-27T14:15:21;98236.31;;;1.87;100.00
5872;BME280;2962;51.312;7.378;2023-01-27T14:20:39;98236.88;;;1.65;100.00
5872;BME280;2962;51.312;7.378;2023-01-27T14:31:27;98237.34;;;1.72;100.00
5872;BME280;2962;51.312;7.378;2023-01-27T14:34:04;98247.94;;;1.63;100.00
5872;BME280;2962;51.312;7.378;2023-01-27T14:39:41;98241.63;;;1.54;100.00
5872;BME280;2962;51.312;7.378;2023-01-27T14:42:22;98246.69;;;1.56;100.00
5872;BME280;2962;51.312;7.378;2023-01-27T14:44:55;98240.88;;;1.49;100.00